Terminal Aerodrome Forecast
Issued by NWS

Home | Current Version | Previous Version | Text Only | Print | Product List | Glossary On
Versions: 1 2 3 4 5 6 7 8 9 10 11 12 13 14
000
FTAK31 PANC 241139
TAFAHO
TAF
PAHO 241139Z 2412/2512 VRB05KT P6SM BKN030 OVC100
     FM241800 VRB05KT P6SM -SNRA SCT025 BKN035
     FM250000 VRB03KT P6SM SCT035 BKN060
     FM250600 04005KT P6SM SCT060=

USA.gov is the U.S. government's official web portal to all federal, state and local government web resources and services.